createdAt,value
2018-12-02T00:02:07.735Z,20.80
2018-12-02T00:04:35.198Z,19.97
2018-12-02T00:07:02.600Z,20.93
2018-12-02T00:09:30.040Z,22.20
2018-12-02T00:11:57.438Z,20.80
2018-12-02T00:14:24.880Z,20.13
2018-12-02T00:16:52.326Z,19.53
2018-12-02T00:19:19.727Z,20.27
2018-12-02T00:21:47.136Z,19.63
2018-12-02T00:24:14.595Z,20.77
2018-12-02T00:26:42.044Z,20.20
2018-12-02T00:29:09.443Z,24.00
2018-12-02T00:31:36.899Z,22.10
2018-12-02T00:34:04.579Z,24.93
2018-12-02T00:36:31.983Z,23.03
2018-12-02T00:38:59.435Z,22.80
2018-12-02T00:41:26.859Z,21.97
2018-12-02T00:43:54.238Z,19.77
2018-12-02T00:46:21.816Z,23.37
2018-12-02T00:48:49.232Z,21.00
2018-12-02T00:51:16.704Z,22.60
2018-12-02T00:53:44.141Z,20.00
2018-12-02T00:56:10.551Z,22.10
2018-12-02T00:58:37.998Z,21.23
2018-12-02T01:01:05.430Z,19.90
2018-12-02T01:03:32.849Z,20.73
2018-12-02T01:06:00.326Z,19.43
2018-12-02T01:08:27.731Z,21.60
2018-12-02T01:10:55.163Z,23.80
2018-12-02T01:13:22.550Z,22.03
2018-12-02T01:15:49.911Z,22.53
2018-12-02T01:18:17.357Z,21.37
2018-12-02T01:20:44.721Z,21.90
2018-12-02T01:23:12.110Z,22.57
2018-12-02T01:25:39.525Z,20.90
2018-12-02T01:28:07.169Z,20.60
2018-12-02T01:30:34.807Z,20.20
2018-12-02T01:33:02.232Z,22.33
2018-12-02T01:35:29.786Z,20.17
2018-12-02T01:37:57.267Z,21.80
2018-12-02T01:40:24.721Z,20.90
2018-12-02T01:42:53.419Z,20.23
2018-12-02T01:45:22.674Z,20.27
2018-12-02T01:47:50.333Z,20.23
2018-12-02T01:50:20.743Z,22.57
2018-12-02T01:52:49.228Z,21.80
2018-12-02T01:55:16.676Z,21.90
2018-12-02T01:57:44.217Z,20.60
2018-12-02T02:00:29.043Z,22.57
2018-12-02T02:02:56.744Z,21.03
2018-12-02T02:05:25.151Z,21.67
2018-12-02T02:07:52.639Z,19.93
2018-12-02T02:10:27.814Z,20.83
2018-12-02T02:12:55.326Z,18.47
2018-12-02T02:15:23.128Z,18.67
2018-12-02T02:17:50.554Z,21.37
2018-12-02T02:20:20.727Z,23.70
2018-12-02T02:22:48.283Z,22.77
2018-12-02T02:25:16.550Z,22.43
2018-12-02T02:27:45.817Z,21.20
2018-12-02T02:30:19.384Z,22.33
2018-12-02T02:32:46.816Z,23.10
2018-12-02T02:35:14.843Z,26.80
2018-12-02T02:37:42.295Z,27.07
2018-12-02T02:40:14.959Z,26.90
2018-12-02T02:42:42.467Z,28.73
2018-12-02T02:45:10.757Z,27.33
2018-12-02T02:47:38.173Z,27.83
2018-12-02T02:50:15.151Z,27.97
2018-12-02T02:52:48.467Z,30.03
2018-12-02T02:55:15.917Z,27.63
2018-12-02T02:57:43.355Z,29.87
2018-12-02T03:00:15.772Z,28.73
2018-12-02T03:02:43.287Z,28.70
2018-12-02T03:05:11.385Z,29.43
2018-12-02T03:07:38.779Z,29.70
2018-12-02T03:10:13.892Z,27.73
2018-12-02T03:12:41.631Z,26.17
2018-12-02T03:15:10.367Z,28.23
2018-12-02T03:17:37.774Z,27.97
2018-12-02T03:20:07.514Z,26.03
2018-12-02T03:22:34.939Z,28.43
2018-12-02T03:25:02.357Z,29.53
2018-12-02T03:27:29.783Z,28.10
2018-12-02T03:29:57.192Z,28.40
2018-12-02T03:32:24.634Z,29.30
2018-12-02T03:34:52.042Z,27.83
2018-12-02T03:37:19.518Z,29.73
2018-12-02T03:39:46.939Z,29.40
2018-12-02T03:42:14.355Z,29.77
2018-12-02T03:44:41.800Z,30.03
2018-12-02T03:47:09.205Z,27.30
2018-12-02T03:49:36.586Z,29.03
2018-12-02T03:52:04.386Z,29.40
2018-12-02T03:54:31.783Z,28.50
2018-12-02T03:56:59.165Z,28.67
2018-12-02T03:59:26.570Z,30.70
2018-12-02T04:01:53.982Z,27.07
2018-12-02T04:04:21.365Z,27.67
2018-12-02T04:06:48.780Z,28.70
2018-12-02T04:09:16.170Z,28.50
2018-12-02T04:11:43.621Z,30.33
2018-12-02T04:14:11.086Z,31.67
2018-12-02T04:16:38.503Z,30.70
2018-12-02T04:19:05.907Z,29.23
2018-12-02T04:21:33.299Z,28.00
2018-12-02T04:24:00.752Z,27.77
2018-12-02T04:26:28.154Z,28.60
2018-12-02T04:28:55.588Z,28.70
2018-12-02T04:31:22.967Z,29.60
2018-12-02T04:33:50.404Z,28.30
2018-12-02T04:36:17.777Z,29.67
2018-12-02T04:38:45.336Z,27.73
2018-12-02T04:41:12.747Z,29.60
2018-12-02T04:43:40.165Z,30.60
2018-12-02T04:46:07.575Z,31.83
2018-12-02T04:48:35.021Z,29.23
2018-12-02T04:51:02.457Z,27.60
2018-12-02T04:53:29.850Z,30.10
2018-12-02T04:55:57.250Z,28.67
2018-12-02T04:58:24.634Z,29.13
2018-12-02T05:00:52.064Z,25.23
2018-12-02T05:03:19.501Z,28.37
2018-12-02T05:05:46.931Z,25.90
2018-12-02T05:08:14.364Z,25.70
2018-12-02T05:10:41.740Z,27.63
2018-12-02T05:13:09.183Z,27.10
2018-12-02T05:15:36.581Z,26.87
2018-12-02T05:18:04.011Z,24.67
2018-12-02T05:20:31.437Z,26.47
2018-12-02T05:22:58.848Z,24.80
2018-12-02T05:25:26.259Z,25.43
2018-12-02T05:27:53.660Z,24.73
2018-12-02T05:30:21.898Z,23.97
2018-12-02T05:32:50.317Z,25.87
2018-12-02T05:35:17.706Z,26.77
2018-12-02T05:37:45.197Z,27.07
2018-12-02T05:40:19.293Z,27.00
2018-12-02T05:42:46.747Z,26.33
2018-12-02T05:45:16.118Z,25.93
2018-12-02T05:47:43.630Z,26.07
2018-12-02T05:50:18.054Z,28.00
2018-12-02T05:52:48.789Z,25.40
2018-12-02T05:55:17.544Z,25.93
2018-12-02T05:57:44.943Z,26.70
2018-12-02T06:00:13.756Z,24.87
2018-12-02T06:02:41.142Z,26.03
2018-12-02T06:05:09.567Z,25.17
2018-12-02T06:07:36.970Z,25.03
2018-12-02T06:10:09.730Z,24.57
2018-12-02T06:12:37.159Z,24.80
2018-12-02T06:15:06.748Z,23.07
2018-12-02T06:17:34.191Z,25.13
2018-12-02T06:20:04.683Z,23.63
2018-12-02T06:22:29.011Z,23.57
2018-12-02T06:24:56.414Z,22.77
2018-12-02T06:27:23.855Z,22.93
2018-12-02T06:29:51.260Z,22.50
2018-12-02T06:32:18.711Z,23.97
2018-12-02T06:34:46.151Z,21.63
2018-12-02T06:37:13.598Z,19.87
2018-12-02T06:39:40.979Z,20.17
2018-12-02T06:42:08.362Z,21.37
2018-12-02T06:44:35.799Z,22.10
2018-12-02T06:47:03.231Z,22.57
2018-12-02T06:49:30.632Z,22.87
2018-12-02T06:51:58.127Z,23.53
2018-12-02T06:54:27.902Z,24.03
2018-12-02T06:57:03.783Z,21.90
2018-12-02T06:59:53.080Z,23.47
2018-12-02T07:02:34.609Z,24.53
2018-12-02T07:05:02.060Z,22.30
2018-12-02T07:07:29.480Z,21.17
2018-12-02T07:09:56.902Z,22.43
2018-12-02T07:12:24.291Z,21.33
2018-12-02T07:14:51.743Z,21.60
2018-12-02T07:17:20.560Z,22.47
2018-12-02T07:19:53.782Z,21.97
2018-12-02T07:22:23.968Z,22.77
2018-12-02T07:24:52.688Z,21.00
2018-12-02T07:27:20.146Z,19.93
2018-12-02T07:29:47.578Z,20.47
2018-12-02T07:32:14.949Z,20.77
2018-12-02T07:34:42.395Z,20.57
2018-12-02T07:37:11.899Z,19.00
2018-12-02T07:40:17.710Z,20.63
2018-12-02T07:42:45.115Z,21.40
2018-12-02T07:45:12.566Z,22.97
2018-12-02T07:47:39.985Z,24.83
2018-12-02T07:50:08.452Z,22.97
2018-12-02T07:52:36.063Z,24.30
2018-12-02T07:55:03.560Z,24.17
2018-12-02T07:57:31.023Z,21.70
2018-12-02T07:59:58.416Z,21.43
2018-12-02T08:02:25.815Z,20.77
2018-12-02T08:04:53.222Z,20.90
2018-12-02T08:07:20.636Z,21.57
2018-12-02T08:09:48.051Z,20.13
2018-12-02T08:12:15.460Z,22.00
2018-12-02T08:14:42.941Z,21.70
2018-12-02T08:17:10.918Z,22.03
2018-12-02T08:19:38.326Z,21.60
2018-12-02T08:22:06.001Z,20.27
2018-12-02T08:24:33.416Z,21.00
2018-12-02T08:27:00.876Z,20.60
2018-12-02T08:29:28.324Z,21.30
2018-12-02T08:31:55.718Z,21.33
2018-12-02T08:34:23.148Z,19.00
2018-12-02T08:36:50.595Z,19.57
2018-12-02T08:39:17.996Z,19.90
2018-12-02T08:41:45.458Z,19.53
2018-12-02T08:44:13.003Z,20.90
2018-12-02T08:46:40.406Z,19.73
2018-12-02T08:49:07.840Z,20.20
2018-12-02T08:51:35.336Z,21.53
2018-12-02T08:54:02.743Z,21.37
2018-12-02T08:56:30.181Z,19.77
2018-12-02T08:58:57.663Z,19.17
2018-12-02T09:01:25.140Z,18.57
2018-12-02T09:03:52.640Z,17.83
2018-12-02T09:06:20.112Z,18.17
2018-12-02T09:08:47.505Z,19.60
2018-12-02T09:11:14.909Z,18.63
2018-12-02T09:13:42.456Z,20.03
2018-12-02T09:16:09.866Z,19.53
2018-12-02T09:18:37.258Z,18.53
2018-12-02T09:21:05.136Z,19.83
2018-12-02T09:23:32.542Z,20.53
2018-12-02T09:25:59.999Z,20.73
2018-12-02T09:28:27.410Z,19.63
2018-12-02T09:30:54.822Z,20.53
2018-12-02T09:33:22.273Z,20.53
2018-12-02T09:35:49.650Z,20.33
2018-12-02T09:38:17.063Z,21.17
2018-12-02T09:40:44.523Z,21.33
2018-12-02T09:43:11.915Z,21.90
2018-12-02T09:45:39.312Z,22.33
2018-12-02T09:48:06.754Z,23.87
2018-12-02T09:50:34.160Z,24.37
2018-12-02T09:53:01.560Z,22.87
2018-12-02T09:55:41.586Z,23.07
2018-12-02T09:58:10.647Z,23.83
2018-12-02T10:00:38.202Z,22.17
2018-12-02T10:03:06.923Z,22.40
2018-12-02T10:05:34.356Z,23.40
2018-12-02T10:08:01.744Z,24.67
2018-12-02T10:10:29.166Z,24.13
2018-12-02T10:13:02.071Z,26.00
2018-12-02T10:15:29.471Z,24.03
2018-12-02T10:17:56.910Z,26.77
2018-12-02T10:20:24.334Z,24.90
2018-12-02T10:22:51.754Z,28.17
2018-12-02T10:25:19.496Z,27.73
2018-12-02T10:27:47.046Z,28.23
2018-12-02T10:30:20.479Z,27.53
2018-12-02T10:32:48.217Z,26.80
2018-12-02T10:35:15.663Z,26.43
2018-12-02T10:37:43.074Z,27.67
2018-12-02T10:40:19.460Z,27.97
2018-12-02T10:42:47.019Z,26.00
2018-12-02T10:45:17.350Z,27.80
2018-12-02T10:47:44.820Z,26.07
2018-12-02T10:50:15.527Z,29.03
2018-12-02T10:52:42.953Z,29.80
2018-12-02T10:55:27.223Z,29.17
2018-12-02T10:57:54.663Z,29.27
2018-12-02T11:01:26.839Z,30.43
2018-12-02T11:03:54.247Z,29.40
2018-12-02T11:06:21.675Z,31.80
2018-12-02T11:08:49.053Z,31.83
2018-12-02T11:11:16.552Z,33.87
2018-12-02T11:13:43.959Z,32.97
2018-12-02T11:16:11.376Z,34.47
2018-12-02T11:18:38.823Z,34.70
2018-12-02T11:21:06.272Z,29.17
2018-12-02T11:23:34.487Z,31.37
2018-12-02T11:26:01.237Z,33.43
2018-12-02T11:28:28.628Z,33.50
2018-12-02T11:30:56.114Z,36.07
2018-12-02T11:33:23.531Z,33.37
2018-12-02T11:35:50.991Z,34.67
2018-12-02T11:38:18.426Z,35.10
2018-12-02T11:40:45.811Z,33.83
2018-12-02T11:43:13.243Z,33.10
2018-12-02T11:45:40.692Z,32.97
2018-12-02T11:48:08.626Z,32.17
2018-12-02T11:50:36.581Z,29.97
2018-12-02T11:53:04.346Z,31.20
2018-12-02T11:55:31.766Z,32.50
2018-12-02T11:57:59.208Z,31.87
2018-12-02T12:00:31.724Z,30.53
2018-12-02T12:02:59.363Z,28.23
2018-12-02T12:05:27.158Z,31.77
2018-12-02T12:07:54.630Z,29.27
2018-12-02T12:10:26.796Z,29.10
2018-12-02T12:12:55.270Z,28.77
2018-12-02T12:15:23.649Z,28.90
2018-12-02T12:17:51.275Z,27.17
2018-12-02T12:20:22.994Z,26.80
2018-12-02T12:22:50.439Z,28.27
2018-12-02T12:25:17.847Z,28.00
2018-12-02T12:27:45.505Z,27.40
2018-12-02T12:30:15.259Z,25.50
2018-12-02T12:32:42.748Z,25.73
2018-12-02T12:35:11.484Z,24.27
2018-12-02T12:37:38.957Z,25.27
2018-12-02T12:40:18.212Z,23.67
2018-12-02T12:42:48.370Z,23.37
2018-12-02T12:45:15.795Z,25.07
2018-12-02T12:47:43.394Z,25.27
2018-12-02T12:50:12.016Z,24.37
2018-12-02T12:52:39.454Z,23.23
2018-12-02T12:55:08.859Z,24.50
2018-12-02T12:57:36.314Z,23.10
2018-12-02T13:00:08.199Z,24.97
2018-12-02T13:02:35.623Z,28.00
2018-12-02T13:05:03.306Z,26.10
2018-12-02T13:07:30.738Z,24.90
2018-12-02T13:09:58.151Z,25.37
2018-12-02T13:12:25.586Z,24.57
2018-12-02T13:14:52.979Z,23.77
2018-12-02T13:17:20.435Z,23.30
2018-12-02T13:19:47.850Z,24.50
2018-12-02T13:22:15.322Z,24.67
2018-12-02T13:24:42.695Z,25.47
2018-12-02T13:27:10.109Z,24.37
2018-12-02T13:29:37.498Z,26.03
2018-12-02T13:32:05.635Z,24.43
2018-12-02T13:34:33.046Z,24.90
2018-12-02T13:37:01.485Z,23.07
2018-12-02T13:39:27.892Z,25.13
2018-12-02T13:41:55.303Z,23.53
2018-12-02T13:44:22.691Z,24.17
2018-12-02T13:46:50.103Z,25.10
2018-12-02T13:49:17.510Z,23.53
2018-12-02T13:51:44.915Z,24.73
2018-12-02T13:54:18.082Z,24.43
2018-12-02T13:56:45.458Z,25.10
2018-12-02T13:59:12.898Z,23.90
2018-12-02T14:01:40.331Z,24.07
2018-12-02T14:04:07.738Z,24.20
2018-12-02T14:06:35.138Z,25.33
2018-12-02T14:09:02.682Z,24.27
2018-12-02T14:11:30.078Z,24.83
2018-12-02T14:13:57.504Z,24.63
2018-12-02T14:17:29.244Z,24.47
2018-12-02T14:19:56.691Z,25.23
2018-12-02T14:22:24.111Z,24.27
2018-12-02T14:24:51.538Z,23.60
2018-12-02T14:27:19.069Z,24.00
2018-12-02T14:29:49.668Z,24.50
2018-12-02T14:32:17.786Z,23.63
2018-12-02T14:34:45.203Z,24.53
2018-12-02T14:37:12.658Z,25.03
2018-12-02T14:39:40.259Z,24.57
2018-12-02T14:42:07.695Z,23.97
2018-12-02T14:44:35.094Z,23.80
2018-12-02T14:47:02.530Z,23.97
2018-12-02T14:49:29.914Z,23.50
2018-12-02T14:51:57.359Z,25.43
2018-12-02T14:54:24.778Z,23.00
2018-12-02T14:56:52.202Z,21.67
2018-12-02T14:59:19.588Z,19.70
2018-12-02T15:01:46.976Z,20.57
2018-12-02T15:04:14.416Z,19.87
2018-12-02T15:06:41.814Z,19.37
2018-12-02T15:09:10.228Z,20.80
2018-12-02T15:11:37.632Z,21.83
2018-12-02T15:14:07.048Z,19.50
2018-12-02T15:16:34.603Z,20.63
2018-12-02T15:19:02.031Z,20.97
2018-12-02T15:21:29.477Z,20.27
2018-12-02T15:23:56.912Z,20.23
2018-12-02T15:26:24.331Z,20.17
2018-12-02T15:28:51.790Z,21.03
2018-12-02T15:31:19.185Z,18.93
2018-12-02T15:33:46.636Z,20.00
2018-12-02T15:36:14.022Z,19.17
2018-12-02T15:38:41.457Z,20.53
2018-12-02T15:41:08.895Z,19.40
2018-12-02T15:43:36.280Z,20.90
2018-12-02T15:46:04.074Z,21.43
2018-12-02T15:48:31.479Z,21.03
2018-12-02T15:50:58.919Z,20.07
2018-12-02T15:53:26.299Z,20.73
2018-12-02T15:55:53.728Z,20.23
2018-12-02T15:58:21.736Z,20.07
2018-12-02T16:00:49.174Z,19.07
2018-12-02T16:03:16.596Z,19.33
2018-12-02T16:05:44.041Z,18.77
2018-12-02T16:08:11.468Z,19.40
2018-12-02T16:10:39.091Z,17.83
2018-12-02T16:13:08.230Z,16.87
2018-12-02T16:15:35.863Z,17.30
2018-12-02T16:18:03.906Z,17.43
2018-12-02T16:20:41.069Z,18.70
2018-12-02T16:23:08.469Z,17.67
2018-12-02T16:25:35.919Z,18.17
2018-12-02T16:28:03.365Z,17.70
2018-12-02T16:30:30.771Z,18.80
2018-12-02T16:32:58.185Z,16.67
2018-12-02T16:35:25.626Z,17.83
2018-12-02T16:37:54.133Z,16.07
2018-12-02T16:40:22.603Z,16.13
2018-12-02T16:42:50.799Z,15.30
2018-12-02T16:45:18.484Z,16.60
2018-12-02T16:47:47.164Z,16.53
2018-12-02T16:50:19.155Z,17.23
2018-12-02T16:52:46.594Z,17.87
2018-12-02T16:55:15.540Z,17.20
2018-12-02T16:57:44.236Z,18.33
2018-12-02T17:00:16.552Z,16.97
2018-12-02T17:02:43.959Z,16.43
2018-12-02T17:05:11.634Z,17.60
2018-12-02T17:07:39.082Z,17.30
2018-12-02T17:10:09.750Z,17.10
2018-12-02T17:12:37.481Z,15.93
2018-12-02T17:15:08.966Z,15.00
2018-12-02T17:17:36.414Z,15.23
2018-12-02T17:20:05.247Z,15.43
2018-12-02T17:22:32.705Z,15.87
2018-12-02T17:25:00.106Z,16.07
2018-12-02T17:27:27.503Z,14.80
2018-12-02T17:29:54.914Z,15.50
2018-12-02T17:32:22.349Z,15.07
2018-12-02T17:34:49.757Z,12.93
2018-12-02T17:37:17.164Z,13.73
2018-12-02T17:39:47.303Z,13.67
2018-12-02T17:42:14.756Z,13.30
2018-12-02T17:44:42.136Z,13.77
2018-12-02T17:47:09.583Z,12.47
2018-12-02T17:49:36.964Z,12.53
2018-12-02T17:52:05.726Z,12.20
2018-12-02T17:54:33.167Z,13.07
2018-12-02T17:57:00.554Z,12.63
2018-12-02T17:59:27.972Z,12.33
2018-12-02T18:01:55.403Z,11.80
2018-12-02T18:04:22.801Z,12.17
2018-12-02T18:06:50.216Z,12.07
2018-12-02T18:09:17.634Z,12.17
2018-12-02T18:11:45.019Z,11.77
2018-12-02T18:14:12.455Z,10.83
2018-12-02T18:16:39.910Z,10.87
2018-12-02T18:19:07.295Z,10.70
2018-12-02T18:21:34.772Z,10.27
2018-12-02T18:24:02.223Z,9.93
2018-12-02T18:26:29.635Z,9.67
2018-12-02T18:28:57.043Z,9.73
2018-12-02T18:31:24.476Z,9.77
2018-12-02T18:33:51.894Z,10.73
2018-12-02T18:36:22.020Z,9.03
2018-12-02T18:38:49.731Z,11.33
2018-12-02T18:41:20.084Z,10.60
2018-12-02T18:43:47.499Z,10.93
2018-12-02T18:46:15.628Z,10.57
2018-12-02T18:48:43.059Z,9.43
2018-12-02T18:51:10.515Z,9.87
2018-12-02T18:53:38.284Z,9.17
2018-12-02T18:56:05.887Z,8.47
2018-12-02T18:58:33.343Z,9.90
2018-12-02T19:01:00.741Z,9.33
2018-12-02T19:03:28.184Z,9.27
2018-12-02T19:05:55.570Z,9.13
2018-12-02T19:08:23.004Z,9.27
2018-12-02T19:10:54.400Z,8.97
2018-12-02T19:13:21.888Z,9.50
2018-12-02T19:15:49.326Z,9.63
2018-12-02T19:18:16.773Z,10.13
2018-12-02T19:20:44.234Z,9.53
2018-12-02T19:23:14.888Z,9.27
2018-12-02T19:25:42.363Z,10.10
2018-12-02T19:28:09.773Z,9.20
2018-12-02T19:30:37.219Z,9.00
2018-12-02T19:33:06.079Z,8.97
2018-12-02T19:35:34.790Z,9.50
2018-12-02T19:38:06.943Z,8.70
2018-12-02T19:40:34.463Z,9.47
2018-12-02T19:43:01.883Z,10.00
2018-12-02T19:45:29.276Z,9.57
2018-12-02T19:47:56.716Z,10.10
2018-12-02T19:50:24.106Z,9.73
2018-12-02T19:52:51.554Z,10.40
2018-12-02T19:55:18.968Z,9.47
2018-12-02T19:57:48.249Z,10.33
2018-12-02T20:00:23.353Z,9.23
2018-12-02T20:02:50.760Z,9.53
2018-12-02T20:05:18.197Z,9.23
2018-12-02T20:07:49.353Z,9.27
2018-12-02T20:10:18.014Z,9.27
2018-12-02T20:12:45.553Z,9.70
2018-12-02T20:15:14.123Z,9.87
2018-12-02T20:17:41.706Z,9.63
2018-12-02T20:20:18.575Z,10.23
2018-12-02T20:22:45.999Z,9.93
2018-12-02T20:25:13.719Z,9.90
2018-12-02T20:27:41.140Z,10.27
2018-12-02T20:30:11.385Z,9.57
2018-12-02T20:32:38.805Z,10.37
2018-12-02T20:35:08.041Z,9.57
2018-12-02T20:37:35.465Z,10.03
2018-12-02T20:40:04.112Z,9.23
2018-12-02T20:42:31.556Z,11.37
2018-12-02T20:44:58.964Z,10.40
2018-12-02T20:47:26.347Z,10.63
2018-12-02T20:49:53.756Z,10.80
2018-12-02T20:52:21.192Z,11.53
2018-12-02T20:54:48.575Z,12.73
2018-12-02T20:57:16.027Z,12.73
2018-12-02T20:59:43.438Z,12.87
2018-12-02T21:02:10.895Z,13.57
2018-12-02T21:04:38.300Z,13.73
2018-12-02T21:07:05.780Z,13.90
2018-12-02T21:09:33.186Z,14.27
2018-12-02T21:12:00.616Z,13.97
2018-12-02T21:14:28.007Z,13.37
2018-12-02T21:16:55.434Z,15.20
2018-12-02T21:19:22.859Z,14.67
2018-12-02T21:21:50.304Z,14.73
2018-12-02T21:24:17.810Z,15.30
2018-12-02T21:26:46.275Z,15.63
2018-12-02T21:29:13.683Z,13.47
2018-12-02T21:31:41.160Z,13.60
2018-12-02T21:34:08.555Z,13.23
2018-12-02T21:36:35.931Z,13.70
2018-12-02T21:39:05.726Z,14.10
2018-12-02T21:41:33.171Z,14.50
2018-12-02T21:44:00.541Z,13.80
2018-12-02T21:46:27.951Z,15.63
2018-12-02T21:48:55.424Z,15.03
2018-12-02T21:51:22.901Z,15.20
2018-12-02T21:53:50.346Z,14.47
2018-12-02T21:56:17.764Z,14.80
2018-12-02T21:58:45.191Z,13.87
2018-12-02T22:01:13.520Z,15.20
2018-12-02T22:03:41.259Z,13.43
2018-12-02T22:06:08.679Z,14.80
2018-12-02T22:08:36.071Z,14.07
2018-12-02T22:11:03.686Z,13.30
2018-12-02T22:13:31.111Z,13.20
2018-12-02T22:15:58.518Z,14.67
2018-12-02T22:18:25.941Z,13.43
2018-12-02T22:20:53.367Z,13.97
2018-12-02T22:23:20.825Z,15.23
2018-12-02T22:25:48.254Z,15.30
2018-12-02T22:28:15.651Z,15.27
2018-12-02T22:30:43.062Z,15.33
2018-12-02T22:33:10.513Z,12.70
2018-12-02T22:35:37.919Z,11.83
2018-12-02T22:38:06.140Z,11.63
2018-12-02T22:40:33.618Z,11.60
2018-12-02T22:43:01.055Z,11.10
2018-12-02T22:45:28.910Z,11.27
2018-12-02T22:47:56.394Z,11.47
2018-12-02T22:50:25.998Z,11.20
2018-12-02T22:52:55.406Z,10.80
2018-12-02T22:55:22.818Z,10.73
2018-12-02T22:57:50.298Z,10.27
2018-12-02T23:00:19.832Z,10.30
2018-12-02T23:02:56.255Z,9.40
2018-12-02T23:05:23.671Z,9.40
2018-12-02T23:07:51.135Z,8.93
2018-12-02T23:10:18.654Z,9.00
2018-12-02T23:12:46.054Z,9.17
2018-12-02T23:15:13.517Z,7.87
2018-12-02T23:17:41.186Z,8.33
2018-12-02T23:20:09.976Z,7.93
2018-12-02T23:22:37.383Z,7.87
2018-12-02T23:25:06.554Z,8.77
2018-12-02T23:27:33.951Z,8.80
2018-12-02T23:30:01.391Z,8.50
2018-12-02T23:32:28.786Z,8.50
2018-12-02T23:34:56.237Z,8.20
2018-12-02T23:37:23.640Z,8.30
2018-12-02T23:39:51.045Z,8.70
2018-12-02T23:42:18.468Z,7.57
2018-12-02T23:44:45.895Z,8.40
2018-12-02T23:47:13.283Z,7.80
2018-12-02T23:49:40.899Z,7.30
2018-12-02T23:52:08.532Z,7.60
2018-12-02T23:54:36.040Z,7.83
2018-12-02T23:57:03.849Z,7.37
2018-12-02T23:59:31.450Z,6.40
